createdAt,value
2022-08-11T00:04:16.056Z,13.14
2022-08-11T00:07:27.291Z,13.15
2022-08-11T00:19:01.770Z,13.07
2022-08-11T00:50:03.620Z,12.80
2022-08-11T01:06:55.359Z,12.78
2022-08-11T01:44:17.331Z,12.54
2022-08-11T02:14:02.523Z,12.34
2022-08-11T02:32:23.834Z,12.20
2022-08-11T03:34:44.806Z,11.77
2022-08-11T03:37:57.732Z,11.73
2022-08-11T04:08:01.431Z,11.67
2022-08-11T04:24:34.406Z,11.77
2022-08-11T04:28:29.212Z,11.80
2022-08-11T04:31:51.132Z,11.85
2022-08-11T04:34:37.095Z,11.91
2022-08-11T04:37:38.797Z,12.00
2022-08-11T04:40:43.278Z,12.08
2022-08-11T04:44:02.807Z,12.17
2022-08-11T04:47:12.890Z,12.28
2022-08-11T04:50:28.450Z,12.41
2022-08-11T04:53:31.644Z,12.56
2022-08-11T04:56:34.299Z,12.68
2022-08-11T04:59:42.176Z,12.82
2022-08-11T05:02:51.744Z,12.97
2022-08-11T05:05:31.613Z,13.12
2022-08-11T05:08:33.317Z,13.26
2022-08-11T05:11:27.101Z,13.44
2022-08-11T05:14:38.598Z,13.59
2022-08-11T05:17:32.217Z,13.77
2022-08-11T05:20:19.906Z,13.91
2022-08-11T05:23:10.662Z,14.08
2022-08-11T05:26:43.220Z,14.28
2022-08-11T05:29:20.534Z,14.50
2022-08-11T05:32:17.235Z,14.67
2022-08-11T05:34:53.047Z,14.84
2022-08-11T05:37:32.393Z,15.00
2022-08-11T05:40:26.925Z,15.16
2022-08-11T05:43:18.161Z,15.34
2022-08-11T05:46:15.420Z,15.54
2022-08-11T05:49:04.673Z,15.73
2022-08-11T05:51:55.646Z,15.89
2022-08-11T05:54:48.507Z,16.08
2022-08-11T05:57:49.954Z,16.25
2022-08-11T06:00:14.451Z,16.44
2022-08-11T06:02:46.745Z,16.61
2022-08-11T06:05:19.642Z,16.78
2022-08-11T06:07:50.274Z,16.95
2022-08-11T06:10:32.637Z,17.12
2022-08-11T06:13:02.362Z,17.24
2022-08-11T06:15:34.058Z,17.39
2022-08-11T06:18:05.904Z,17.51
2022-08-11T06:20:46.957Z,17.66
2022-08-11T06:23:18.117Z,17.84
2022-08-11T06:25:48.033Z,17.99
2022-08-11T06:28:21.070Z,18.16
2022-08-11T06:30:51.366Z,18.31
2022-08-11T06:33:30.354Z,18.45
2022-08-11T06:36:07.126Z,18.58
2022-08-11T06:38:56.596Z,18.72
2022-08-11T06:41:31.134Z,18.86
2022-08-11T06:44:17.268Z,19.01
2022-08-11T06:46:50.907Z,19.16
2022-08-11T06:49:40.749Z,19.32
2022-08-11T06:52:34.760Z,19.48
2022-08-11T06:55:08.062Z,19.62
2022-08-11T06:58:00.225Z,19.76
2022-08-11T07:00:33.366Z,19.90
2022-08-11T07:03:08.561Z,20.06
2022-08-11T07:05:45.398Z,20.26
2022-08-11T07:08:54.185Z,20.44
2022-08-11T07:12:19.268Z,20.61
2022-08-11T07:15:11.370Z,20.81
2022-08-11T07:17:48.558Z,21.00
2022-08-11T07:20:37.084Z,21.19
2022-08-11T07:23:28.833Z,21.33
2022-08-11T07:26:21.213Z,21.44
2022-08-11T07:28:58.228Z,21.60
2022-08-11T07:31:35.787Z,21.68
2022-08-11T07:34:18.384Z,21.77
2022-08-11T07:36:53.967Z,21.87
2022-08-11T07:39:26.828Z,21.97
2022-08-11T07:41:58.185Z,22.10
2022-08-11T07:44:35.162Z,22.24
2022-08-11T07:47:23.506Z,22.40
2022-08-11T07:50:12.517Z,22.58
2022-08-11T07:52:46.219Z,22.71
2022-08-11T07:55:18.146Z,22.87
2022-08-11T07:58:19.136Z,22.95
2022-08-11T08:01:21.330Z,23.08
2022-08-11T08:04:10.432Z,23.23
2022-08-11T08:06:59.734Z,23.30
2022-08-11T08:09:51.433Z,23.29
2022-08-11T08:12:41.447Z,23.31
2022-08-11T08:15:29.384Z,23.36
2022-08-11T08:18:09.408Z,23.32
2022-08-11T08:20:51.057Z,23.36
2022-08-11T08:23:32.251Z,23.41
2022-08-11T08:26:03.943Z,23.45
2022-08-11T08:28:34.799Z,23.57
2022-08-11T08:31:04.156Z,23.63
2022-08-11T08:33:33.821Z,23.60
2022-08-11T08:36:43.100Z,23.63
2022-08-11T08:39:37.172Z,23.70
2022-08-11T08:42:10.889Z,23.72
2022-08-11T08:51:54.836Z,23.91
2022-08-11T08:55:22.414Z,23.94
2022-08-11T09:12:41.723Z,24.64
2022-08-11T09:19:21.368Z,24.76
2022-08-11T09:23:29.609Z,24.63
2022-08-11T09:27:05.234Z,24.54
2022-08-11T09:29:35.114Z,24.71
2022-08-11T09:37:54.096Z,24.79
2022-08-11T09:40:30.858Z,24.62
2022-08-11T09:43:22.915Z,24.56
2022-08-11T09:45:53.641Z,24.36
2022-08-11T09:48:25.168Z,24.20
2022-08-11T09:50:56.185Z,24.09
2022-08-11T09:53:35.070Z,24.07
2022-08-11T09:56:22.147Z,24.15
2022-08-11T09:58:51.202Z,24.29
2022-08-11T10:01:48.585Z,24.51
2022-08-11T10:04:28.054Z,24.76
2022-08-11T10:07:05.123Z,24.84
2022-08-11T10:09:41.947Z,24.87
2022-08-11T10:12:14.319Z,24.93
2022-08-11T10:15:06.560Z,25.06
2022-08-11T10:17:59.479Z,25.22
2022-08-11T10:20:29.932Z,25.29
2022-08-11T10:23:17.825Z,25.28
2022-08-11T10:26:07.005Z,25.25
2022-08-11T10:28:55.912Z,25.18
2022-08-11T10:31:57.540Z,25.03
2022-08-11T10:34:29.379Z,24.83
2022-08-11T10:37:02.442Z,24.80
2022-08-11T10:39:31.470Z,24.84
2022-08-11T10:42:34.984Z,24.88
2022-08-11T10:45:29.991Z,25.02
2022-08-11T10:47:59.676Z,25.09
2022-08-11T10:50:46.825Z,25.06
2022-08-11T10:53:35.538Z,24.98
2022-08-11T10:56:24.903Z,24.85
2022-08-11T10:58:58.507Z,24.84
2022-08-11T11:01:33.714Z,24.90
2022-08-11T11:04:11.369Z,24.89
2022-08-11T11:11:00.006Z,24.92
2022-08-11T11:13:55.169Z,24.95
2022-08-11T11:16:40.566Z,25.04
2022-08-11T11:24:00.829Z,25.00
2022-08-11T11:26:42.659Z,24.88
2022-08-11T11:29:45.861Z,24.84
2022-08-11T11:32:31.137Z,24.88
2022-08-11T11:35:44.821Z,24.97
2022-08-11T11:38:14.357Z,25.05
2022-08-11T11:40:44.183Z,25.11
2022-08-11T11:43:13.150Z,25.18
2022-08-11T11:45:42.151Z,25.24
2022-08-11T11:48:12.736Z,25.27
2022-08-11T11:50:43.480Z,25.36
2022-08-11T11:53:15.054Z,25.45
2022-08-11T11:55:44.132Z,25.45
2022-08-11T11:58:40.553Z,25.43
2022-08-11T12:01:16.237Z,25.40
2022-08-11T12:03:47.900Z,25.40
2022-08-11T12:06:19.650Z,25.47
2022-08-11T12:08:51.999Z,25.48
2022-08-11T12:11:43.735Z,25.46
2022-08-11T12:14:15.876Z,25.50
2022-08-11T12:16:47.487Z,25.54
2022-08-11T12:19:20.749Z,25.59
2022-08-11T12:22:09.449Z,25.66
2022-08-11T12:24:59.630Z,25.73
2022-08-11T12:27:30.668Z,25.77
2022-08-11T12:30:06.062Z,25.76
2022-08-11T12:32:38.781Z,25.69
2022-08-11T12:35:10.817Z,25.66
2022-08-11T12:37:45.116Z,25.69
2022-08-11T12:41:11.680Z,25.72
2022-08-11T12:43:56.280Z,25.70
2022-08-11T12:46:31.754Z,25.75
2022-08-11T12:49:26.617Z,25.75
2022-08-11T12:52:11.804Z,25.81
2022-08-11T12:54:53.787Z,25.90
2022-08-11T12:57:47.457Z,25.98
2022-08-11T13:00:35.905Z,25.97
2022-08-11T13:03:26.353Z,25.92
2022-08-11T13:05:59.675Z,25.96
2022-08-11T13:08:30.415Z,25.94
2022-08-11T13:11:20.741Z,26.03
2022-08-11T13:13:57.834Z,26.19
2022-08-11T13:16:36.914Z,26.26
2022-08-11T13:19:05.941Z,26.30
2022-08-11T13:21:34.992Z,26.32
2022-08-11T13:24:05.620Z,26.43
2022-08-11T13:26:47.772Z,26.55
2022-08-11T13:29:20.489Z,26.65
2022-08-11T13:31:50.679Z,26.62
2022-08-11T13:34:24.686Z,26.55
2022-08-11T13:37:01.059Z,26.54
2022-08-11T13:39:32.416Z,26.51
2022-08-11T13:42:15.514Z,26.41
2022-08-11T13:44:45.152Z,26.27
2022-08-11T13:47:15.406Z,26.12
2022-08-11T13:49:44.363Z,25.79
2022-08-11T13:52:15.984Z,25.39
2022-08-11T13:54:47.980Z,25.02
2022-08-11T13:58:07.494Z,24.69
2022-08-11T14:00:13.018Z,24.25
2022-08-11T14:02:54.495Z,23.97
2022-08-11T14:05:39.831Z,23.74
2022-08-11T14:08:37.726Z,23.46
2022-08-11T14:12:23.600Z,23.12
2022-08-11T14:14:23.412Z,22.94
2022-08-11T14:16:56.521Z,22.81
2022-08-11T14:19:27.615Z,22.73
2022-08-11T14:22:08.120Z,22.67
2022-08-11T14:24:40.132Z,22.60
2022-08-11T14:28:22.057Z,22.56
2022-08-11T14:30:02.650Z,22.53
2022-08-11T14:32:32.189Z,22.49
2022-08-11T14:35:03.326Z,22.46
2022-08-11T14:37:32.534Z,22.42
2022-08-11T14:40:22.828Z,22.39
2022-08-11T14:43:05.415Z,22.38
2022-08-11T14:45:58.826Z,22.32
2022-08-11T14:48:27.880Z,22.35
2022-08-11T14:50:57.289Z,22.43
2022-08-11T14:53:29.287Z,22.50
2022-08-11T15:05:56.718Z,22.28
2022-08-11T15:09:18.457Z,22.30
2022-08-11T15:21:32.929Z,22.08
2022-08-11T15:34:53.713Z,22.05
2022-08-11T15:55:08.681Z,22.17
2022-08-11T16:02:29.003Z,22.18
2022-08-11T16:32:17.145Z,22.24
2022-08-11T16:40:08.181Z,22.21
2022-08-11T16:47:08.185Z,22.11
2022-08-11T16:49:39.819Z,22.09
2022-08-11T17:01:58.749Z,21.93
2022-08-11T17:36:48.471Z,21.49
2022-08-11T17:39:32.863Z,21.49
2022-08-11T17:46:55.400Z,21.35
2022-08-11T17:50:22.989Z,21.35
2022-08-11T18:01:54.037Z,21.23
2022-08-11T18:14:52.479Z,21.01
2022-08-11T18:26:48.203Z,20.56
2022-08-11T18:39:31.629Z,20.04
2022-08-11T18:46:29.515Z,19.72
2022-08-11T18:50:11.832Z,19.68
2022-08-11T19:56:52.074Z,17.63
2022-08-11T20:08:18.857Z,17.36
2022-08-11T20:33:02.059Z,16.91
2022-08-11T20:36:38.220Z,16.84
2022-08-11T21:06:09.125Z,16.47
2022-08-11T21:20:00.682Z,16.19
2022-08-11T21:41:00.496Z,15.78
2022-08-11T21:44:36.221Z,15.77
2022-08-11T21:52:16.647Z,15.67
2022-08-11T22:05:47.154Z,15.45
2022-08-11T23:12:08.024Z,14.55
2022-08-11T23:25:10.185Z,14.42
2022-08-11T23:31:21.851Z,14.29
2022-08-11T23:35:39.970Z,14.27
2022-08-11T23:40:11.895Z,14.25
2022-08-11T23:47:50.749Z,14.13
2022-08-11T23:51:40.969Z,14.13
